sensor_id;sensor_type;location;lat;lon;timestamp;pressure;altitude;pressure_sealevel;temperature;humidity
48035;BME280;33812;46.480;6.834;2023-07-20T00:03:37;93724.63;;;25.04;39.51
48035;BME280;33812;46.480;6.834;2023-07-20T00:07:40;93731.25;;;25.07;39.40
48035;BME280;33812;46.480;6.834;2023-07-20T00:11:49;93723.84;;;25.04;38.89
48035;BME280;33812;46.480;6.834;2023-07-20T00:15:52;93727.84;;;25.03;39.24
48035;BME280;33812;46.480;6.834;2023-07-20T00:19:55;93729.88;;;25.02;39.23
48035;BME280;33812;46.480;6.834;2023-07-20T00:23:58;93727.84;;;25.03;38.93
48035;BME280;33812;46.480;6.834;2023-07-20T00:27:59;93727.56;;;25.01;38.58
48035;BME280;33812;46.480;6.834;2023-07-20T00:32:02;93735.13;;;25.00;38.72
48035;BME280;33812;46.480;6.834;2023-07-20T00:36:06;93735.59;;;24.98;38.66
48035;BME280;33812;46.480;6.834;2023-07-20T00:40:09;93740.06;;;24.96;38.59
48035;BME280;33812;46.480;6.834;2023-07-20T00:44:10;93736.53;;;24.95;38.60
48035;BME280;33812;46.480;6.834;2023-07-20T00:48:12;93736.22;;;24.93;38.87
48035;BME280;33812;46.480;6.834;2023-07-20T00:52:16;93733.09;;;24.91;38.90
48035;BME280;33812;46.480;6.834;2023-07-20T00:56:18;93740.31;;;24.88;38.58
48035;BME280;33812;46.480;6.834;2023-07-20T01:00:20;93731.72;;;24.86;38.94
48035;BME280;33812;46.480;6.834;2023-07-20T01:04:22;93731.72;;;24.86;38.71
48035;BME280;33812;46.480;6.834;2023-07-20T01:08:33;93721.81;;;24.85;38.95
48035;BME280;33812;46.480;6.834;2023-07-20T01:12:41;93724.28;;;24.83;39.34
48035;BME280;33812;46.480;6.834;2023-07-20T01:16:43;93721.81;;;24.85;39.25
48035;BME280;33812;46.480;6.834;2023-07-20T01:20:46;93713.94;;;24.84;39.27
48035;BME280;33812;46.480;6.834;2023-07-20T01:25:29;93708.84;;;24.82;38.69
48035;BME280;33812;46.480;6.834;2023-07-20T01:30:02;93713.63;;;24.82;38.93
48035;BME280;33812;46.480;6.834;2023-07-20T01:34:08;93716.41;;;24.82;39.04
48035;BME280;33812;46.480;6.834;2023-07-20T01:38:13;93711.00;;;24.78;38.52
48035;BME280;33812;46.480;6.834;2023-07-20T01:42:15;93705.16;;;24.76;38.79
48035;BME280;33812;46.480;6.834;2023-07-20T01:46:17;93701.13;;;24.77;38.96
48035;BME280;33812;46.480;6.834;2023-07-20T01:50:21;93699.28;;;24.74;38.59
48035;BME280;33812;46.480;6.834;2023-07-20T01:54:22;93702.06;;;24.74;38.54
48035;BME280;33812;46.480;6.834;2023-07-20T01:58:24;93689.09;;;24.71;39.06
48035;BME280;33812;46.480;6.834;2023-07-20T02:02:27;93693.09;;;24.70;39.11
48035;BME280;33812;46.480;6.834;2023-07-20T02:06:30;93696.34;;;24.68;39.14
48035;BME280;33812;46.480;6.834;2023-07-20T02:10:32;93691.25;;;24.67;38.54
48035;BME280;33812;46.480;6.834;2023-07-20T02:14:34;93707.16;;;24.66;38.61
48035;BME280;33812;46.480;6.834;2023-07-20T02:18:35;93705.63;;;24.65;38.61
48035;BME280;33812;46.480;6.834;2023-07-20T02:22:39;93700.06;;;24.65;38.80
48035;BME280;33812;46.480;6.834;2023-07-20T02:26:41;93708.84;;;24.63;38.78
48035;BME280;33812;46.480;6.834;2023-07-20T02:30:44;93702.97;;;24.61;38.95
48035;BME280;33812;46.480;6.834;2023-07-20T02:34:46;93705.75;;;24.61;39.04
48035;BME280;33812;46.480;6.834;2023-07-20T02:38:50;93705.75;;;24.61;39.03
48035;BME280;33812;46.480;6.834;2023-07-20T02:42:51;93702.66;;;24.59;38.88
48035;BME280;33812;46.480;6.834;2023-07-20T02:46:53;93706.38;;;24.56;39.08
48035;BME280;33812;46.480;6.834;2023-07-20T02:50:55;93702.34;;;24.57;39.15
48035;BME280;33812;46.480;6.834;2023-07-20T02:54:58;93712.41;;;24.55;39.03
48035;BME280;33812;46.480;6.834;2023-07-20T02:59:01;93707.78;;;24.51;39.12
48035;BME280;33812;46.480;6.834;2023-07-20T03:03:03;93709.31;;;24.53;39.18
48035;BME280;33812;46.480;6.834;2023-07-20T03:07:05;93713.34;;;24.51;39.23
48035;BME280;33812;46.480;6.834;2023-07-20T03:11:09;93707.94;;;24.48;39.62
48035;BME280;33812;46.480;6.834;2023-07-20T03:15:11;93707.16;;;24.47;39.38
48035;BME280;33812;46.480;6.834;2023-07-20T03:19:13;93708.38;;;24.46;39.41
48035;BME280;33812;46.480;6.834;2023-07-20T03:23:15;93706.03;;;24.45;39.54
48035;BME280;33812;46.480;6.834;2023-07-20T03:27:18;93705.75;;;24.43;39.66
48035;BME280;33812;46.480;6.834;2023-07-20T03:31:20;93706.97;;;24.42;39.68
48035;BME280;33812;46.480;6.834;2023-07-20T03:35:22;93708.22;;;24.41;39.66
48035;BME280;33812;46.480;6.834;2023-07-20T03:39:23;93711.78;;;24.41;39.79
48035;BME280;33812;46.480;6.834;2023-07-20T03:43:28;93715.00;;;24.39;39.76
48035;BME280;33812;46.480;6.834;2023-07-20T03:47:30;93716.25;;;24.38;39.67
48035;BME280;33812;46.480;6.834;2023-07-20T03:51:32;93714.72;;;24.37;39.74
48035;BME280;33812;46.480;6.834;2023-07-20T03:55:34;93717.63;;;24.34;39.42
48035;BME280;33812;46.480;6.834;2023-07-20T03:59:39;93712.81;;;24.34;39.61
48035;BME280;33812;46.480;6.834;2023-07-20T04:03:42;93709.28;;;24.34;39.85
48035;BME280;33812;46.480;6.834;2023-07-20T04:07:44;93705.41;;;24.31;40.26
48035;BME280;33812;46.480;6.834;2023-07-20T04:11:46;93706.22;;;24.32;39.92
48035;BME280;33812;46.480;6.834;2023-07-20T04:15:49;93709.44;;;24.30;40.44
48035;BME280;33812;46.480;6.834;2023-07-20T04:19:51;93706.66;;;24.30;40.04
48035;BME280;33812;46.480;6.834;2023-07-20T04:23:53;93708.34;;;24.27;40.14
48035;BME280;33812;46.480;6.834;2023-07-20T04:27:54;93707.28;;;24.25;40.29
48035;BME280;33812;46.480;6.834;2023-07-20T04:31:58;93701.72;;;24.25;40.40
48035;BME280;33812;46.480;6.834;2023-07-20T04:35:59;93705.44;;;24.22;40.46
48035;BME280;33812;46.480;6.834;2023-07-20T04:40:01;93706.75;;;24.17;41.00
48035;BME280;33812;46.480;6.834;2023-07-20T04:44:04;93703.53;;;24.09;40.60
48035;BME280;33812;46.480;6.834;2023-07-20T04:48:09;93701.97;;;24.08;40.44
48035;BME280;33812;46.480;6.834;2023-07-20T04:52:11;93698.72;;;24.10;41.03
48035;BME280;33812;46.480;6.834;2023-07-20T04:56:14;93698.13;;;24.06;41.12
48035;BME280;33812;46.480;6.834;2023-07-20T05:00:16;93698.28;;;24.11;41.26
48035;BME280;33812;46.480;6.834;2023-07-20T05:04:19;93693.34;;;24.15;41.23
48035;BME280;33812;46.480;6.834;2023-07-20T05:08:21;93693.22;;;24.19;41.39
48035;BME280;33812;46.480;6.834;2023-07-20T05:12:24;93693.06;;;24.23;41.47
48035;BME280;33812;46.480;6.834;2023-07-20T05:16:26;93694.94;;;24.26;42.05
48035;BME280;33812;46.480;6.834;2023-07-20T05:20:29;93696.78;;;24.29;41.56
48035;BME280;33812;46.480;6.834;2023-07-20T05:24:32;93695.09;;;24.32;42.06
48035;BME280;33812;46.480;6.834;2023-07-20T05:28:33;93689.84;;;24.34;42.10
48035;BME280;33812;46.480;6.834;2023-07-20T05:32:36;93688.63;;;24.35;41.63
48035;BME280;33812;46.480;6.834;2023-07-20T05:36:39;93692.47;;;24.37;42.13
48035;BME280;33812;46.480;6.834;2023-07-20T05:40:41;93694.03;;;24.38;42.30
48035;BME280;33812;46.480;6.834;2023-07-20T05:44:43;93689.56;;;24.41;41.75
48035;BME280;33812;46.480;6.834;2023-07-20T05:48:45;93692.63;;;24.43;42.17
48035;BME280;33812;46.480;6.834;2023-07-20T05:52:48;93681.03;;;24.45;42.10
48035;BME280;33812;46.480;6.834;2023-07-20T05:56:51;93687.38;;;24.45;41.71
48035;BME280;33812;46.480;6.834;2023-07-20T06:00:53;93686.59;;;24.45;41.73
48035;BME280;33812;46.480;6.834;2023-07-20T06:04:55;93688.16;;;24.46;41.70
48035;BME280;33812;46.480;6.834;2023-07-20T06:08:58;93690.16;;;24.45;42.03
48035;BME280;33812;46.480;6.834;2023-07-20T06:13:03;93692.94;;;24.45;41.99
48035;BME280;33812;46.480;6.834;2023-07-20T06:17:06;93695.25;;;24.47;42.27
48035;BME280;33812;46.480;6.834;2023-07-20T06:21:07;93680.91;;;24.48;42.20
48035;BME280;33812;46.480;6.834;2023-07-20T06:25:11;93689.53;;;24.50;42.81
48035;BME280;33812;46.480;6.834;2023-07-20T06:29:13;93683.53;;;24.52;42.37
48035;BME280;33812;46.480;6.834;2023-07-20T06:33:15;93681.06;;;24.54;42.46
48035;BME280;33812;46.480;6.834;2023-07-20T06:37:17;93688.19;;;24.55;42.56
48035;BME280;33812;46.480;6.834;2023-07-20T06:41:21;93686.16;;;24.56;42.40
48035;BME280;33812;46.480;6.834;2023-07-20T06:45:23;93696.03;;;24.57;42.49
48035;BME280;33812;46.480;6.834;2023-07-20T06:49:26;93695.59;;;24.58;42.46
48035;BME280;33812;46.480;6.834;2023-07-20T06:53:29;93690.78;;;24.59;42.38
48035;BME280;33812;46.480;6.834;2023-07-20T06:57:32;93687.56;;;24.60;42.47
48035;BME280;33812;46.480;6.834;2023-07-20T07:01:34;93687.56;;;24.60;42.97
48035;BME280;33812;46.480;6.834;2023-07-20T07:05:36;93683.53;;;24.61;42.66
48035;BME280;33812;46.480;6.834;2023-07-20T07:09:38;93678.75;;;24.62;42.64
48035;BME280;33812;46.480;6.834;2023-07-20T07:13:42;93682.59;;;24.65;42.72
48035;BME280;33812;46.480;6.834;2023-07-20T07:17:43;93679.81;;;24.65;42.82
48035;BME280;33812;46.480;6.834;2023-07-20T07:21:46;93679.81;;;24.65;42.69
48035;BME280;33812;46.480;6.834;2023-07-20T07:25:48;93669.03;;;24.67;43.17
48035;BME280;33812;46.480;6.834;2023-07-20T07:29:51;93669.03;;;24.67;43.20
48035;BME280;33812;46.480;6.834;2023-07-20T07:33:53;93679.66;;;24.68;42.92
48035;BME280;33812;46.480;6.834;2023-07-20T07:37:55;93672.13;;;24.69;43.01
48035;BME280;33812;46.480;6.834;2023-07-20T07:41:57;93667.31;;;24.69;42.96
48035;BME280;33812;46.480;6.834;2023-07-20T07:46:00;93666.56;;;24.69;43.25
48035;BME280;33812;46.480;6.834;2023-07-20T07:50:02;93672.72;;;24.73;43.04
48035;BME280;33812;46.480;6.834;2023-07-20T07:54:04;93663.63;;;24.72;43.25
48035;BME280;33812;46.480;6.834;2023-07-20T07:58:06;93667.16;;;24.73;42.93
48035;BME280;33812;46.480;6.834;2023-07-20T08:02:09;93661.59;;;24.73;43.36
48035;BME280;33812;46.480;6.834;2023-07-20T08:06:11;93652.78;;;24.74;42.88
48035;BME280;33812;46.480;6.834;2023-07-20T08:10:12;93652.78;;;24.74;43.02
48035;BME280;33812;46.480;6.834;2023-07-20T08:14:14;93652.34;;;24.76;42.94
48035;BME280;33812;46.480;6.834;2023-07-20T08:18:18;93644.75;;;24.77;43.39
48035;BME280;33812;46.480;6.834;2023-07-20T08:22:19;93655.13;;;24.76;42.92
48035;BME280;33812;46.480;6.834;2023-07-20T08:26:23;93651.88;;;24.78;43.19
48035;BME280;33812;46.480;6.834;2023-07-20T08:30:25;93648.31;;;24.77;43.33
48035;BME280;33812;46.480;6.834;2023-07-20T08:34:28;93647.84;;;24.79;43.40
48035;BME280;33812;46.480;6.834;2023-07-20T08:38:30;93642.28;;;24.79;43.11
48035;BME280;33812;46.480;6.834;2023-07-20T08:42:31;93640.59;;;24.81;43.27
48035;BME280;33812;46.480;6.834;2023-07-20T08:46:35;93648.16;;;24.81;43.67
48035;BME280;33812;46.480;6.834;2023-07-20T08:50:40;93644.13;;;24.82;43.43
48035;BME280;33812;46.480;6.834;2023-07-20T08:54:43;93636.59;;;24.82;43.67
48035;BME280;33812;46.480;6.834;2023-07-20T08:58:45;93639.34;;;24.82;43.62
48035;BME280;33812;46.480;6.834;2023-07-20T09:02:49;93625.00;;;24.84;43.59
48035;BME280;33812;46.480;6.834;2023-07-20T09:06:53;93624.22;;;24.83;43.87
48035;BME280;33812;46.480;6.834;2023-07-20T09:10:55;93629.34;;;24.85;43.68
48035;BME280;33812;46.480;6.834;2023-07-20T09:14:57;93620.53;;;24.86;43.70
48035;BME280;33812;46.480;6.834;2023-07-20T09:18:59;93620.53;;;24.86;43.64
48035;BME280;33812;46.480;6.834;2023-07-20T09:23:05;93614.97;;;24.86;44.02
48035;BME280;33812;46.480;6.834;2023-07-20T09:27:07;93605.38;;;24.87;43.65
48035;BME280;33812;46.480;6.834;2023-07-20T09:31:15;93606.91;;;24.88;43.96
48035;BME280;33812;46.480;6.834;2023-07-20T09:35:19;93598.56;;;24.88;44.07
48035;BME280;33812;46.480;6.834;2023-07-20T09:39:23;93596.56;;;24.89;44.11
48035;BME280;33812;46.480;6.834;2023-07-20T09:43:28;93591.78;;;24.90;43.83
48035;BME280;33812;46.480;6.834;2023-07-20T09:47:31;93591.78;;;24.90;43.74
48035;BME280;33812;46.480;6.834;2023-07-20T09:51:33;93582.97;;;24.91;44.15
48035;BME280;33812;46.480;6.834;2023-07-20T09:55:38;93584.53;;;24.92;44.19
48035;BME280;33812;46.480;6.834;2023-07-20T09:59:41;93586.56;;;24.92;44.24
48035;BME280;33812;46.480;6.834;2023-07-20T10:03:45;93581.28;;;24.94;44.28
48035;BME280;33812;46.480;6.834;2023-07-20T10:07:50;93582.06;;;24.94;44.45
48035;BME280;33812;46.480;6.834;2023-07-20T10:11:56;93593.97;;;24.95;44.10
48035;BME280;33812;46.480;6.834;2023-07-20T10:16:02;93589.94;;;24.96;44.23
48035;BME280;33812;46.480;6.834;2023-07-20T10:20:05;93579.59;;;24.96;44.59
48035;BME280;33812;46.480;6.834;2023-07-20T10:24:08;93582.38;;;24.96;44.19
48035;BME280;33812;46.480;6.834;2023-07-20T10:28:13;93567.22;;;24.97;44.59
48035;BME280;33812;46.480;6.834;2023-07-20T10:32:15;93562.44;;;24.98;44.62
48035;BME280;33812;46.480;6.834;2023-07-20T10:36:25;93554.09;;;24.98;44.21
48035;BME280;33812;46.480;6.834;2023-07-20T10:40:29;93550.06;;;24.99;44.61
48035;BME280;33812;46.480;6.834;2023-07-20T10:44:36;93550.84;;;24.99;44.63
48035;BME280;33812;46.480;6.834;2023-07-20T10:48:59;93540.50;;;25.00;44.83
48035;BME280;33812;46.480;6.834;2023-07-20T10:53:10;93535.25;;;25.02;44.68
48035;BME280;33812;46.480;6.834;2023-07-20T10:57:32;93527.38;;;25.01;44.82
48035;BME280;33812;46.480;6.834;2023-07-20T11:01:36;93525.34;;;25.01;44.59
48035;BME280;33812;46.480;6.834;2023-07-20T11:05:38;93524.88;;;25.03;44.72
48035;BME280;33812;46.480;6.834;2023-07-20T11:09:41;93520.88;;;25.04;44.64
48035;BME280;33812;46.480;6.834;2023-07-20T11:13:59;93524.44;;;25.04;44.67
48035;BME280;33812;46.480;6.834;2023-07-20T11:18:12;93512.06;;;25.05;44.60
48035;BME280;33812;46.480;6.834;2023-07-20T11:22:17;93509.28;;;25.05;44.67
48035;BME280;33812;46.480;6.834;2023-07-20T11:26:22;93512.84;;;25.06;44.80
48035;BME280;33812;46.480;6.834;2023-07-20T11:30:24;93506.81;;;25.07;44.64
48035;BME280;33812;46.480;6.834;2023-07-20T11:34:30;93498.47;;;25.07;44.63
48035;BME280;33812;46.480;6.834;2023-07-20T11:38:31;93484.56;;;25.07;44.67
48035;BME280;33812;46.480;6.834;2023-07-20T11:42:33;93494.44;;;25.08;45.11
48035;BME280;33812;46.480;6.834;2023-07-20T11:46:35;93487.66;;;25.09;45.06
48035;BME280;33812;46.480;6.834;2023-07-20T11:50:40;93489.19;;;25.10;45.03
48035;BME280;33812;46.480;6.834;2023-07-20T11:54:42;93486.41;;;25.10;44.69
48035;BME280;33812;46.480;6.834;2023-07-20T11:58:44;93479.59;;;25.11;44.67
48035;BME280;33812;46.480;6.834;2023-07-20T12:02:46;93469.25;;;25.12;45.18
48035;BME280;33812;46.480;6.834;2023-07-20T12:06:50;93458.91;;;25.13;44.92
48035;BME280;33812;46.480;6.834;2023-07-20T12:10:55;93460.44;;;25.14;44.68
48035;BME280;33812;46.480;6.834;2023-07-20T12:15:13;93454.09;;;25.13;44.81
48035;BME280;33812;46.480;6.834;2023-07-20T12:19:15;93445.28;;;25.15;45.02
48035;BME280;33812;46.480;6.834;2023-07-20T12:23:18;93444.03;;;25.16;45.18
48035;BME280;33812;46.480;6.834;2023-07-20T12:27:20;93447.59;;;25.16;45.06
48035;BME280;33812;46.480;6.834;2023-07-20T12:31:22;93442.78;;;25.17;44.73
48035;BME280;33812;46.480;6.834;2023-07-20T12:35:24;93442.78;;;25.17;44.79
48035;BME280;33812;46.480;6.834;2023-07-20T12:39:28;93433.97;;;25.18;44.91
48035;BME280;33812;46.480;6.834;2023-07-20T12:43:31;93433.22;;;25.18;44.93
48035;BME280;33812;46.480;6.834;2023-07-20T12:47:33;93423.63;;;25.19;45.21
48035;BME280;33812;46.480;6.834;2023-07-20T12:51:35;93429.19;;;25.19;45.19
48035;BME280;33812;46.480;6.834;2023-07-20T13:04:00;93424.69;;;25.21;44.99
48035;BME280;33812;46.480;6.834;2023-07-20T13:08:03;93429.50;;;25.21;45.07
48035;BME280;33812;46.480;6.834;2023-07-20T13:12:07;93421.91;;;25.21;44.83
48035;BME280;33812;46.480;6.834;2023-07-20T13:16:09;93422.19;;;25.23;44.98
48035;BME280;33812;46.480;6.834;2023-07-20T13:20:15;93418.66;;;25.23;44.89
48035;BME280;33812;46.480;6.834;2023-07-20T13:24:17;93414.63;;;25.24;45.17
48035;BME280;33812;46.480;6.834;2023-07-20T13:28:18;93403.50;;;25.24;45.30
48035;BME280;33812;46.480;6.834;2023-07-20T13:32:22;93413.41;;;25.25;45.33
48035;BME280;33812;46.480;6.834;2023-07-20T13:36:25;93408.59;;;25.26;44.81
48035;BME280;33812;46.480;6.834;2023-07-20T13:40:27;93402.56;;;25.27;44.87
48035;BME280;33812;46.480;6.834;2023-07-20T13:44:29;93399.31;;;25.29;45.31
48035;BME280;33812;46.480;6.834;2023-07-20T13:48:30;93399.75;;;25.27;45.21
48035;BME280;33812;46.480;6.834;2023-07-20T13:52:34;93388.19;;;25.29;44.82
48035;BME280;33812;46.480;6.834;2023-07-20T13:56:37;93386.63;;;25.28;45.25
48035;BME280;33812;46.480;6.834;2023-07-20T14:00:38;93379.06;;;25.28;44.87
48035;BME280;33812;46.480;6.834;2023-07-20T14:04:40;93375.81;;;25.30;44.87
48035;BME280;33812;46.480;6.834;2023-07-20T14:08:44;93367.00;;;25.31;45.27
48035;BME280;33812;46.480;6.834;2023-07-20T14:12:46;93363.44;;;25.31;44.79
48035;BME280;33812;46.480;6.834;2023-07-20T14:16:49;93360.19;;;25.32;45.28
48035;BME280;33812;46.480;6.834;2023-07-20T14:20:51;93360.94;;;25.33;45.11
48035;BME280;33812;46.480;6.834;2023-07-20T14:24:54;93353.38;;;25.33;45.11
48035;BME280;33812;46.480;6.834;2023-07-20T14:28:56;93346.56;;;25.34;45.32
48035;BME280;33812;46.480;6.834;2023-07-20T14:32:58;93346.56;;;25.34;45.69
48035;BME280;33812;46.480;6.834;2023-07-20T14:37:00;93338.50;;;25.37;45.76
48035;BME280;33812;46.480;6.834;2023-07-20T14:41:04;93325.38;;;25.37;45.46
48035;BME280;33812;46.480;6.834;2023-07-20T14:45:06;93328.91;;;25.38;45.46
48035;BME280;33812;46.480;6.834;2023-07-20T14:49:08;93336.03;;;25.39;45.82
48035;BME280;33812;46.480;6.834;2023-07-20T14:53:11;93320.13;;;25.39;45.56
48035;BME280;33812;46.480;6.834;2023-07-20T14:57:14;93326.44;;;25.40;45.45
48035;BME280;33812;46.480;6.834;2023-07-20T15:01:16;93325.69;;;25.39;45.72
48035;BME280;33812;46.480;6.834;2023-07-20T15:05:21;93323.94;;;25.42;46.17
48035;BME280;33812;46.480;6.834;2023-07-20T15:09:24;93321.16;;;25.42;45.63
48035;BME280;33812;46.480;6.834;2023-07-20T15:13:27;93325.47;;;25.43;45.68
48035;BME280;33812;46.480;6.834;2023-07-20T15:17:29;93322.25;;;25.44;45.93
48035;BME280;33812;46.480;6.834;2023-07-20T15:21:30;93314.63;;;25.45;46.34
48035;BME280;33812;46.480;6.834;2023-07-20T15:25:33;93320.97;;;25.45;46.36
48035;BME280;33812;46.480;6.834;2023-07-20T15:29:36;93311.38;;;25.46;46.66
48035;BME280;33812;46.480;6.834;2023-07-20T15:33:38;93309.38;;;25.47;46.40
48035;BME280;33812;46.480;6.834;2023-07-20T15:37:40;93304.09;;;25.49;46.63
48035;BME280;33812;46.480;6.834;2023-07-20T15:41:41;93306.88;;;25.49;46.86
48035;BME280;33812;46.480;6.834;2023-07-20T15:45:46;93302.09;;;25.50;47.26
48035;BME280;33812;46.480;6.834;2023-07-20T15:49:49;93297.28;;;25.50;47.06
48035;BME280;33812;46.480;6.834;2023-07-20T15:53:50;93298.84;;;25.51;46.89
48035;BME280;33812;46.480;6.834;2023-07-20T15:57:52;93292.78;;;25.53;47.53
48035;BME280;33812;46.480;6.834;2023-07-20T16:01:55;93290.00;;;25.53;47.54
48035;BME280;33812;46.480;6.834;2023-07-20T16:05:57;93292.31;;;25.54;47.75
48035;BME280;33812;46.480;6.834;2023-07-20T16:09:59;93287.03;;;25.56;48.44
48035;BME280;33812;46.480;6.834;2023-07-20T16:14:03;93286.25;;;25.56;47.68
48035;BME280;33812;46.480;6.834;2023-07-20T16:18:06;93286.56;;;25.58;47.93
48035;BME280;33812;46.480;6.834;2023-07-20T16:22:08;93281.75;;;25.58;47.67
48035;BME280;33812;46.480;6.834;2023-07-20T16:26:12;93283.78;;;25.58;48.42
48035;BME280;33812;46.480;6.834;2023-07-20T16:30:14;93277.72;;;25.59;47.91
48035;BME280;33812;46.480;6.834;2023-07-20T16:34:17;93274.16;;;25.59;47.86
48035;BME280;33812;46.480;6.834;2023-07-20T16:38:19;93271.38;;;25.59;47.41
48035;BME280;33812;46.480;6.834;2023-07-20T16:42:20;93272.16;;;25.59;47.72
48035;BME280;33812;46.480;6.834;2023-07-20T16:46:23;93272.94;;;25.60;47.49
48035;BME280;33812;46.480;6.834;2023-07-20T16:50:26;93270.16;;;25.60;47.12
48035;BME280;33812;46.480;6.834;2023-07-20T16:54:28;93276.47;;;25.60;47.35
48035;BME280;33812;46.480;6.834;2023-07-20T16:58:30;93269.66;;;25.62;46.84
48035;BME280;33812;46.480;6.834;2023-07-20T17:02:32;93275.22;;;25.62;46.86
48035;BME280;33812;46.480;6.834;2023-07-20T17:06:35;93273.19;;;25.62;47.31
48035;BME280;33812;46.480;6.834;2023-07-20T17:10:38;93271.19;;;25.63;47.29
48035;BME280;33812;46.480;6.834;2023-07-20T17:14:40;93271.97;;;25.63;46.95
48035;BME280;33812;46.480;6.834;2023-07-20T17:18:42;93265.16;;;25.64;47.41
48035;BME280;33812;46.480;6.834;2023-07-20T17:22:45;93265.16;;;25.64;47.58
48035;BME280;33812;46.480;6.834;2023-07-20T17:26:47;93264.69;;;25.66;47.39
48035;BME280;33812;46.480;6.834;2023-07-20T17:30:56;93260.66;;;25.67;47.75
48035;BME280;33812;46.480;6.834;2023-07-20T17:34:58;93267.75;;;25.68;47.89
48035;BME280;33812;46.480;6.834;2023-07-20T17:39:02;93266.97;;;25.67;47.71
48035;BME280;33812;46.480;6.834;2023-07-20T17:43:03;93273.31;;;25.68;47.98
48035;BME280;33812;46.480;6.834;2023-07-20T17:47:06;93264.19;;;25.67;47.52
48035;BME280;33812;46.480;6.834;2023-07-20T17:51:07;93259.41;;;25.68;47.68
48035;BME280;33812;46.480;6.834;2023-07-20T17:55:12;93268.53;;;25.68;47.69
48035;BME280;33812;46.480;6.834;2023-07-20T17:59:13;93276.41;;;25.70;48.09
48035;BME280;33812;46.480;6.834;2023-07-20T18:03:16;93270.84;;;25.70;48.11
48035;BME280;33812;46.480;6.834;2023-07-20T18:07:18;93262.47;;;25.70;47.76
48035;BME280;33812;46.480;6.834;2023-07-20T18:11:21;93268.06;;;25.70;48.30
48035;BME280;33812;46.480;6.834;2023-07-20T18:15:23;93280.22;;;25.73;47.65
48035;BME280;33812;46.480;6.834;2023-07-20T18:19:25;93275.06;;;25.65;43.09
48035;BME280;33812;46.480;6.834;2023-07-20T18:23:27;93278.31;;;25.64;43.06
48035;BME280;33812;46.480;6.834;2023-07-20T18:27:30;93274.47;;;25.61;41.93
48035;BME280;33812;46.480;6.834;2023-07-20T18:31:32;93280.97;;;25.58;40.96
48035;BME280;33812;46.480;6.834;2023-07-20T18:35:34;93285.78;;;25.57;41.21
48035;BME280;33812;46.480;6.834;2023-07-20T18:39:35;93280.41;;;25.54;40.54
48035;BME280;33812;46.480;6.834;2023-07-20T18:43:39;93282.63;;;25.50;39.90
48035;BME280;33812;46.480;6.834;2023-07-20T18:47:40;93279.84;;;25.50;41.13
48035;BME280;33812;46.480;6.834;2023-07-20T18:51:44;93281.38;;;25.51;39.92
48035;BME280;33812;46.480;6.834;2023-07-20T18:55:46;93283.06;;;25.48;40.92
48035;BME280;33812;46.480;6.834;2023-07-20T18:59:49;93281.56;;;25.47;40.51
48035;BME280;33812;46.480;6.834;2023-07-20T19:03:51;93285.66;;;25.37;40.34
48035;BME280;33812;46.480;6.834;2023-07-20T19:07:53;93287.19;;;25.38;40.77
48035;BME280;33812;46.480;6.834;2023-07-20T19:11:57;93292.69;;;25.32;40.13
48035;BME280;33812;46.480;6.834;2023-07-20T19:16:00;93295.94;;;25.30;39.83
48035;BME280;33812;46.480;6.834;2023-07-20T19:20:04;93295.94;;;25.30;40.99
48035;BME280;33812;46.480;6.834;2023-07-20T19:24:06;93304.75;;;25.29;40.15
48035;BME280;33812;46.480;6.834;2023-07-20T19:28:07;93306.16;;;25.24;40.68
48035;BME280;33812;46.480;6.834;2023-07-20T19:32:11;93315.47;;;25.21;39.71
48035;BME280;33812;46.480;6.834;2023-07-20T19:36:13;93321.69;;;25.16;39.73
48035;BME280;33812;46.480;6.834;2023-07-20T19:40:15;93320.75;;;25.19;39.64
48035;BME280;33812;46.480;6.834;2023-07-20T19:44:17;93322.56;;;25.22;40.27
48035;BME280;33812;46.480;6.834;2023-07-20T19:48:20;93318.25;;;25.21;40.27
48035;BME280;33812;46.480;6.834;2023-07-20T19:52:22;93325.16;;;25.26;40.58
48035;BME280;33812;46.480;6.834;2023-07-20T19:56:24;93328.72;;;25.26;40.44
48035;BME280;33812;46.480;6.834;2023-07-20T20:00:26;93335.72;;;25.21;40.21
48035;BME280;33812;46.480;6.834;2023-07-20T20:04:29;93332.69;;;25.10;40.60
48035;BME280;33812;46.480;6.834;2023-07-20T20:08:31;93346.66;;;25.25;40.24
48035;BME280;33812;46.480;6.834;2023-07-20T20:12:33;93349.44;;;25.25;40.26
48035;BME280;33812;46.480;6.834;2023-07-20T20:16:35;93356.69;;;25.07;39.63
48035;BME280;33812;46.480;6.834;2023-07-20T20:20:43;93341.38;;;25.27;40.86
48035;BME280;33812;46.480;6.834;2023-07-20T20:24:45;93342.25;;;25.33;41.32
48035;BME280;33812;46.480;6.834;2023-07-20T20:28:47;93350.91;;;25.35;41.13
48035;BME280;33812;46.480;6.834;2023-07-20T20:32:49;93344.84;;;25.37;40.97
48035;BME280;33812;46.480;6.834;2023-07-20T20:36:52;93350.41;;;25.37;40.64
48035;BME280;33812;46.480;6.834;2023-07-20T20:40:54;93338.50;;;25.37;41.04
48035;BME280;33812;46.480;6.834;2023-07-20T20:44:57;93348.38;;;25.38;41.21
48035;BME280;33812;46.480;6.834;2023-07-20T20:48:59;93347.16;;;25.39;41.29
48035;BME280;33812;46.480;6.834;2023-07-20T20:53:05;93351.16;;;25.38;40.48
48035;BME280;33812;46.480;6.834;2023-07-20T20:57:08;93346.38;;;25.38;40.38
48035;BME280;33812;46.480;6.834;2023-07-20T21:01:10;93349.94;;;25.39;40.40
48035;BME280;33812;46.480;6.834;2023-07-20T21:05:12;93359.81;;;25.40;40.39
48035;BME280;33812;46.480;6.834;2023-07-20T21:09:15;93355.50;;;25.39;40.51
48035;BME280;33812;46.480;6.834;2023-07-20T21:13:17;93346.38;;;25.38;40.30
48035;BME280;33812;46.480;6.834;2023-07-20T21:17:18;93353.50;;;25.39;39.81
48035;BME280;33812;46.480;6.834;2023-07-20T21:21:20;93353.50;;;25.39;39.93
48035;BME280;33812;46.480;6.834;2023-07-20T21:25:24;93353.50;;;25.39;39.85
48035;BME280;33812;46.480;6.834;2023-07-20T21:29:25;93354.72;;;25.38;39.65
48035;BME280;33812;46.480;6.834;2023-07-20T21:33:28;93341.28;;;25.37;39.17
48035;BME280;33812;46.480;6.834;2023-07-20T21:37:31;93351.94;;;25.38;39.91